createdAt,value
2023-03-16T00:02:14.295Z,49.55
2023-03-16T00:04:42.911Z,49.68
2023-03-16T00:07:12.768Z,49.20
2023-03-16T00:09:41.797Z,49.54
2023-03-16T00:12:16.427Z,49.82
2023-03-16T00:14:45.169Z,49.78
2023-03-16T00:17:19.426Z,49.83
2023-03-16T00:19:48.566Z,49.67
2023-03-16T00:22:16.765Z,50.23
2023-03-16T00:24:45.089Z,49.62
2023-03-16T00:27:15.432Z,50.09
2023-03-16T00:29:47.814Z,50.23
2023-03-16T00:32:17.396Z,49.83
2023-03-16T00:34:45.485Z,50.26
2023-03-16T00:37:15.937Z,50.12
2023-03-16T00:39:44.630Z,50.68
2023-03-16T00:42:15.939Z,50.45
2023-03-16T00:44:44.087Z,50.44
2023-03-16T00:47:14.632Z,50.64
2023-03-16T00:49:44.237Z,50.22
2023-03-16T00:52:15.165Z,50.24
2023-03-16T00:54:44.675Z,50.36
2023-03-16T00:57:18.783Z,50.25
2023-03-16T00:59:47.645Z,50.51
2023-03-16T01:02:17.010Z,50.65
2023-03-16T01:04:44.853Z,50.26
2023-03-16T01:07:15.787Z,50.17
2023-03-16T01:09:44.122Z,50.40
2023-03-16T01:12:16.414Z,50.51
2023-03-16T01:14:45.742Z,50.66
2023-03-16T01:17:14.920Z,50.32
2023-03-16T01:19:43.667Z,50.45
2023-03-16T01:22:12.356Z,50.80
2023-03-16T01:24:41.783Z,50.62
2023-03-16T01:27:10.357Z,50.76
2023-03-16T01:29:40.090Z,50.49
2023-03-16T01:32:07.726Z,49.97
2023-03-16T01:34:36.301Z,50.61
2023-03-16T01:37:04.132Z,50.86
2023-03-16T01:39:31.933Z,51.38
2023-03-16T01:42:00.315Z,51.23
2023-03-16T01:44:30.901Z,51.97
2023-03-16T01:47:00.315Z,52.15
2023-03-16T01:49:32.694Z,51.86
2023-03-16T01:52:04.118Z,51.81
2023-03-16T01:54:36.923Z,52.29
2023-03-16T01:57:08.403Z,52.57
2023-03-16T01:59:40.400Z,53.25
2023-03-16T02:02:11.521Z,52.77
2023-03-16T02:04:54.837Z,52.85
2023-03-16T02:07:26.055Z,53.28
2023-03-16T02:09:58.924Z,53.74
2023-03-16T02:12:27.576Z,53.45
2023-03-16T02:14:55.435Z,53.49
2023-03-16T02:17:27.912Z,53.19
2023-03-16T02:20:08.849Z,54.00
2023-03-16T02:22:38.256Z,54.19
2023-03-16T02:25:06.960Z,54.00
2023-03-16T02:27:42.973Z,53.91
2023-03-16T02:30:15.428Z,54.08
2023-03-16T02:32:44.247Z,54.44
2023-03-16T02:35:13.148Z,53.96
2023-03-16T02:37:41.796Z,53.84
2023-03-16T02:40:23.626Z,54.56
2023-03-16T02:42:56.566Z,54.34
2023-03-16T02:45:29.415Z,54.17
2023-03-16T02:47:59.585Z,53.96
2023-03-16T02:50:27.598Z,54.13
2023-03-16T02:52:55.948Z,54.34
2023-03-16T02:55:23.894Z,54.07
2023-03-16T02:57:52.216Z,54.19
2023-03-16T03:00:22.498Z,54.49
2023-03-16T03:02:52.472Z,54.33
2023-03-16T03:05:20.348Z,54.45
2023-03-16T03:07:48.617Z,53.97
2023-03-16T03:10:16.776Z,53.76
2023-03-16T03:12:49.674Z,53.94
2023-03-16T03:15:18.913Z,53.84
2023-03-16T03:17:46.741Z,53.80
2023-03-16T03:20:17.726Z,54.18
2023-03-16T03:22:47.038Z,54.04
2023-03-16T03:25:16.170Z,54.06
2023-03-16T03:27:45.215Z,54.08
2023-03-16T03:30:15.693Z,53.83
2023-03-16T03:32:44.141Z,53.68
2023-03-16T03:35:13.305Z,53.97
2023-03-16T03:37:44.148Z,53.52
2023-03-16T03:40:14.797Z,53.53
2023-03-16T03:42:43.204Z,53.67
2023-03-16T03:45:13.112Z,53.71
2023-03-16T03:47:42.351Z,53.42
2023-03-16T03:50:11.618Z,53.45
2023-03-16T03:52:39.314Z,53.27
2023-03-16T03:55:09.914Z,53.51
2023-03-16T03:57:37.976Z,53.11
2023-03-16T04:00:11.502Z,52.97
2023-03-16T04:02:39.536Z,52.87
2023-03-16T04:05:07.955Z,53.09
2023-03-16T04:07:35.629Z,52.95
2023-03-16T04:10:03.453Z,52.51
2023-03-16T04:12:32.508Z,52.78
2023-03-16T04:15:00.646Z,53.00
2023-03-16T04:17:28.316Z,52.91
2023-03-16T04:19:55.969Z,52.78
2023-03-16T04:22:24.206Z,52.85
2023-03-16T04:24:52.246Z,53.00
2023-03-16T04:27:19.941Z,52.59
2023-03-16T04:29:49.477Z,52.85
2023-03-16T04:32:17.125Z,52.93
2023-03-16T04:34:44.876Z,52.94
2023-03-16T04:37:13.649Z,53.05
2023-03-16T04:39:42.106Z,52.76
2023-03-16T04:42:09.932Z,53.24
2023-03-16T04:44:44.520Z,52.96
2023-03-16T04:47:14.577Z,52.96
2023-03-16T04:49:42.371Z,53.38
2023-03-16T04:52:11.639Z,53.56
2023-03-16T04:54:39.317Z,53.72
2023-03-16T04:57:08.422Z,53.55
2023-03-16T04:59:36.584Z,53.84
2023-03-16T05:02:04.260Z,53.74
2023-03-16T05:04:34.456Z,53.94
2023-03-16T05:07:02.921Z,54.03
2023-03-16T05:09:30.609Z,54.11
2023-03-16T05:11:58.303Z,54.35
2023-03-16T05:14:26.471Z,53.94
2023-03-16T05:16:54.124Z,54.49
2023-03-16T05:19:21.825Z,54.62
2023-03-16T05:21:50.871Z,54.42
2023-03-16T05:24:18.520Z,54.04
2023-03-16T05:26:46.176Z,54.05
2023-03-16T05:29:14.475Z,53.96
2023-03-16T05:31:42.132Z,53.79
2023-03-16T05:34:09.823Z,54.06
2023-03-16T05:36:37.998Z,53.50
2023-03-16T05:39:08.388Z,53.90
2023-03-16T05:41:36.401Z,53.63
2023-03-16T05:44:05.555Z,53.46
2023-03-16T05:46:33.349Z,54.64
2023-03-16T05:49:01.257Z,53.73
2023-03-16T05:51:29.676Z,53.69
2023-03-16T05:53:57.558Z,53.50
2023-03-16T05:56:27.790Z,53.61
2023-03-16T05:58:57.232Z,53.50
2023-03-16T06:01:25.229Z,53.39
2023-03-16T06:03:53.346Z,53.61
2023-03-16T06:06:22.882Z,53.00
2023-03-16T06:08:50.711Z,53.30
2023-03-16T06:11:18.752Z,53.41
2023-03-16T06:13:48.366Z,53.96
2023-03-16T06:16:16.920Z,53.54
2023-03-16T06:18:44.798Z,53.32
2023-03-16T06:21:13.000Z,53.05
2023-03-16T06:23:40.799Z,53.17
2023-03-16T06:26:08.505Z,53.01
2023-03-16T06:28:36.792Z,52.42
2023-03-16T06:31:06.127Z,52.82
2023-03-16T06:33:33.817Z,52.68
2023-03-16T06:36:02.263Z,52.80
2023-03-16T06:38:29.945Z,52.40
2023-03-16T06:40:57.653Z,52.69
2023-03-16T06:43:25.868Z,52.50
2023-03-16T06:45:53.597Z,52.18
2023-03-16T06:48:22.664Z,52.54
2023-03-16T06:50:50.956Z,52.07
2023-03-16T06:53:18.605Z,52.47
2023-03-16T06:55:46.271Z,52.00
2023-03-16T06:58:14.516Z,51.94
2023-03-16T07:00:42.784Z,52.22
2023-03-16T07:03:10.500Z,51.51
2023-03-16T07:05:39.984Z,52.08
2023-03-16T07:08:07.890Z,51.75
2023-03-16T07:10:35.557Z,51.69
2023-03-16T07:13:04.644Z,51.65
2023-03-16T07:15:32.279Z,51.42
2023-03-16T07:17:59.912Z,51.29
2023-03-16T07:20:31.757Z,51.13
2023-03-16T07:23:00.826Z,51.17
2023-03-16T07:25:28.552Z,51.04
2023-03-16T07:27:56.784Z,50.69
2023-03-16T07:30:25.417Z,50.94
2023-03-16T07:32:53.268Z,50.54
2023-03-16T07:35:22.165Z,50.43
2023-03-16T07:37:50.476Z,50.88
2023-03-16T07:40:19.819Z,49.98
2023-03-16T07:42:47.980Z,49.95
2023-03-16T07:45:17.801Z,49.50
2023-03-16T07:47:45.504Z,48.98
2023-03-16T07:50:16.260Z,49.15
2023-03-16T07:52:44.184Z,48.63
2023-03-16T07:55:11.978Z,48.24
2023-03-16T07:57:42.573Z,48.50
2023-03-16T08:00:14.117Z,48.22
2023-03-16T08:02:42.048Z,47.83
2023-03-16T08:05:11.706Z,48.33
2023-03-16T08:07:39.233Z,49.10
2023-03-16T08:10:07.497Z,47.81
2023-03-16T08:12:35.620Z,46.96
2023-03-16T08:15:05.856Z,46.91
2023-03-16T08:17:34.173Z,46.74
2023-03-16T08:20:02.471Z,47.05
2023-03-16T08:22:30.858Z,46.17
2023-03-16T08:24:58.544Z,46.31
2023-03-16T08:27:29.757Z,46.12
2023-03-16T08:29:57.542Z,46.10
2023-03-16T08:32:26.599Z,45.72
2023-03-16T08:34:55.482Z,46.40
2023-03-16T08:37:24.132Z,46.16
2023-03-16T08:39:53.066Z,45.69
2023-03-16T08:42:21.673Z,45.46
2023-03-16T08:44:49.355Z,44.48
2023-03-16T08:47:17.064Z,44.72
2023-03-16T08:49:46.676Z,44.62
2023-03-16T08:52:14.159Z,45.27
2023-03-16T08:54:59.837Z,44.09
2023-03-16T08:57:29.716Z,43.59
2023-03-16T08:59:57.398Z,43.47
2023-03-16T09:02:25.563Z,44.13
2023-03-16T09:04:55.069Z,44.17
2023-03-16T09:07:22.740Z,43.91
2023-03-16T09:09:51.038Z,43.53
2023-03-16T09:12:21.073Z,43.78
2023-03-16T09:14:48.984Z,43.40
2023-03-16T09:17:16.630Z,42.92
2023-03-16T09:19:54.392Z,43.51
2023-03-16T09:22:24.446Z,43.19
2023-03-16T09:24:52.639Z,43.19
2023-03-16T09:27:22.437Z,43.48
2023-03-16T09:29:50.617Z,43.54
2023-03-16T09:32:18.785Z,43.20
2023-03-16T09:34:46.534Z,43.32
2023-03-16T09:37:14.556Z,43.01
2023-03-16T09:39:43.990Z,42.92
2023-03-16T09:42:19.183Z,42.92
2023-03-16T09:44:57.666Z,43.48
2023-03-16T09:47:30.230Z,42.84
2023-03-16T09:50:01.721Z,42.58
2023-03-16T09:52:39.430Z,42.97
2023-03-16T09:55:17.711Z,42.52
2023-03-16T09:57:47.361Z,42.72
2023-03-16T10:00:17.328Z,42.16
2023-03-16T10:03:12.659Z,42.21
2023-03-16T10:05:40.899Z,41.25
2023-03-16T10:08:15.979Z,41.74
2023-03-16T10:10:58.056Z,40.79
2023-03-16T10:13:33.623Z,41.12
2023-03-16T10:16:06.179Z,40.97
2023-03-16T10:18:40.962Z,41.15
2023-03-16T10:21:14.111Z,40.80
2023-03-16T10:23:43.368Z,39.47
2023-03-16T10:26:15.928Z,40.53
2023-03-16T10:28:45.823Z,40.12
2023-03-16T10:31:14.662Z,39.97
2023-03-16T10:33:42.331Z,40.26
2023-03-16T10:36:27.476Z,40.42
2023-03-16T10:38:59.639Z,40.09
2023-03-16T10:41:32.346Z,38.52
2023-03-16T10:44:07.151Z,39.43
2023-03-16T10:46:39.870Z,39.07
2023-03-16T10:49:22.088Z,39.74
2023-03-16T10:51:50.405Z,39.25
2023-03-16T10:54:29.402Z,38.10
2023-03-16T10:56:58.805Z,39.14
2023-03-16T10:59:33.196Z,38.67
2023-03-16T11:02:03.758Z,38.51
2023-03-16T11:04:34.354Z,38.07
2023-03-16T11:07:02.032Z,38.20
2023-03-16T11:09:34.340Z,38.57
2023-03-16T11:12:15.367Z,39.03
2023-03-16T11:14:45.718Z,37.82
2023-03-16T11:17:17.854Z,38.63
2023-03-16T11:19:53.125Z,37.88
2023-03-16T11:22:23.381Z,36.92
2023-03-16T11:24:55.621Z,36.82
2023-03-16T11:27:27.777Z,37.41
2023-03-16T11:30:06.039Z,36.86
2023-03-16T11:32:37.412Z,35.65
2023-03-16T11:35:13.893Z,36.20
2023-03-16T11:37:54.660Z,35.72
2023-03-16T11:40:35.389Z,36.26
2023-03-16T11:43:15.824Z,35.34
2023-03-16T11:45:50.252Z,35.77
2023-03-16T11:48:28.820Z,35.25
2023-03-16T11:51:05.191Z,35.36
2023-03-16T11:53:50.647Z,36.31
2023-03-16T11:56:27.968Z,35.17
2023-03-16T11:59:46.297Z,34.75
2023-03-16T12:02:34.348Z,36.25
2023-03-16T12:05:24.155Z,35.74
2023-03-16T12:08:04.548Z,36.30
2023-03-16T12:10:38.497Z,36.32
2023-03-16T12:13:35.108Z,36.43
2023-03-16T12:16:10.880Z,35.81
2023-03-16T12:18:46.953Z,36.64
2023-03-16T12:21:18.398Z,36.09
2023-03-16T12:23:53.547Z,35.38
2023-03-16T12:26:24.077Z,36.24
2023-03-16T12:28:55.576Z,35.67
2023-03-16T12:31:34.568Z,35.79
2023-03-16T12:34:09.610Z,36.40
2023-03-16T12:36:52.106Z,36.06
2023-03-16T12:39:30.371Z,35.29
2023-03-16T12:42:11.820Z,35.97
2023-03-16T12:44:46.941Z,35.98
2023-03-16T12:47:27.169Z,34.88
2023-03-16T12:49:56.747Z,35.53
2023-03-16T12:52:24.219Z,36.01
2023-03-16T12:54:53.233Z,35.68
2023-03-16T12:57:25.648Z,35.34
2023-03-16T12:59:59.309Z,35.88
2023-03-16T13:02:32.929Z,34.85
2023-03-16T13:05:02.735Z,34.90
2023-03-16T13:07:33.045Z,34.83
2023-03-16T13:10:08.708Z,34.66
2023-03-16T13:12:38.569Z,34.71
2023-03-16T13:15:27.445Z,34.75
2023-03-16T13:18:21.281Z,34.68
2023-03-16T13:20:56.930Z,34.25
2023-03-16T13:23:27.533Z,33.73
2023-03-16T13:26:06.010Z,34.51
2023-03-16T13:28:37.933Z,34.18
2023-03-16T13:31:07.417Z,34.00
2023-03-16T13:33:40.777Z,34.76
2023-03-16T13:36:09.059Z,34.02
2023-03-16T13:38:37.502Z,33.96
2023-03-16T13:41:10.560Z,34.66
2023-03-16T13:43:43.826Z,34.43
2023-03-16T13:46:18.088Z,33.68
2023-03-16T13:48:48.343Z,34.06
2023-03-16T13:51:19.121Z,33.92
2023-03-16T13:53:46.880Z,33.97
2023-03-16T13:56:16.747Z,33.24
2023-03-16T13:58:48.608Z,34.18
2023-03-16T14:01:26.001Z,34.33
2023-03-16T14:03:57.450Z,34.76
2023-03-16T14:06:28.726Z,34.46
2023-03-16T14:09:01.391Z,33.95
2023-03-16T14:11:29.514Z,34.42
2023-03-16T14:13:58.873Z,34.18
2023-03-16T14:16:29.895Z,33.96
2023-03-16T14:19:03.243Z,34.20
2023-03-16T14:21:34.451Z,34.22
2023-03-16T14:24:05.435Z,33.59
2023-03-16T14:26:41.845Z,33.97
2023-03-16T14:29:19.420Z,34.26
2023-03-16T14:31:47.293Z,34.00
2023-03-16T14:34:28.805Z,34.52
2023-03-16T14:37:08.595Z,33.99
2023-03-16T14:39:36.535Z,34.09
2023-03-16T14:42:06.903Z,34.31
2023-03-16T14:44:37.115Z,34.38
2023-03-16T14:47:07.123Z,33.92
2023-03-16T14:49:38.554Z,34.29
2023-03-16T14:52:09.301Z,33.65
2023-03-16T14:54:37.307Z,33.81
2023-03-16T14:57:06.664Z,34.11
2023-03-16T14:59:34.665Z,33.59
2023-03-16T15:02:06.258Z,34.31
2023-03-16T15:04:37.418Z,33.69
2023-03-16T15:07:22.638Z,33.66
2023-03-16T15:09:52.127Z,33.21
2023-03-16T15:12:21.157Z,33.12
2023-03-16T15:15:06.967Z,33.34
2023-03-16T15:17:34.689Z,33.19
2023-03-16T15:20:05.211Z,32.99
2023-03-16T15:22:34.937Z,33.37
2023-03-16T15:25:04.610Z,32.78
2023-03-16T15:27:35.884Z,33.97
2023-03-16T15:30:03.619Z,33.37
2023-03-16T15:32:31.392Z,33.39
2023-03-16T15:34:59.409Z,33.54
2023-03-16T15:37:30.135Z,33.46
2023-03-16T15:39:57.803Z,33.76
2023-03-16T15:42:27.596Z,33.06
2023-03-16T15:44:55.291Z,33.12
2023-03-16T15:47:23.189Z,32.88
2023-03-16T15:49:51.150Z,32.96
2023-03-16T15:52:27.779Z,33.16
2023-03-16T15:54:57.745Z,32.86
2023-03-16T15:57:25.541Z,32.72
2023-03-16T15:59:53.710Z,32.41
2023-03-16T16:02:28.666Z,32.25
2023-03-16T16:04:56.957Z,32.51
2023-03-16T16:07:24.724Z,32.12
2023-03-16T16:09:53.058Z,32.35
2023-03-16T16:12:26.798Z,32.29
2023-03-16T16:14:56.457Z,32.27
2023-03-16T16:17:41.208Z,33.11
2023-03-16T16:20:21.658Z,32.33
2023-03-16T16:22:50.267Z,32.53
2023-03-16T16:25:18.005Z,32.07
2023-03-16T16:27:48.065Z,32.25
2023-03-16T16:30:20.999Z,32.53
2023-03-16T16:32:49.061Z,31.98
2023-03-16T16:35:19.736Z,32.80
2023-03-16T16:37:47.779Z,32.13
2023-03-16T16:40:18.307Z,32.43
2023-03-16T16:42:48.880Z,32.05
2023-03-16T16:45:19.269Z,31.72
2023-03-16T16:47:47.840Z,32.49
2023-03-16T16:50:17.571Z,32.41
2023-03-16T16:52:45.463Z,32.07
2023-03-16T16:55:13.488Z,32.18
2023-03-16T16:57:41.854Z,32.25
2023-03-16T17:00:19.701Z,32.55
2023-03-16T17:02:50.816Z,32.38
2023-03-16T17:05:22.273Z,32.37
2023-03-16T17:07:50.973Z,32.09
2023-03-16T17:10:22.741Z,32.12
2023-03-16T17:12:51.692Z,32.42
2023-03-16T17:15:28.310Z,32.90
2023-03-16T17:18:03.058Z,32.64
2023-03-16T17:20:31.699Z,33.00
2023-03-16T17:23:00.162Z,33.07
2023-03-16T17:25:30.140Z,33.29
2023-03-16T17:27:59.092Z,33.51
2023-03-16T17:30:30.159Z,33.70
2023-03-16T17:33:03.850Z,34.10
2023-03-16T17:35:31.976Z,34.10
2023-03-16T17:38:00.084Z,34.34
2023-03-16T17:40:28.850Z,34.29
2023-03-16T17:42:56.886Z,34.43
2023-03-16T17:45:27.774Z,34.41
2023-03-16T17:47:57.538Z,34.43
2023-03-16T17:50:26.726Z,34.46
2023-03-16T17:52:54.730Z,34.24
2023-03-16T17:55:25.281Z,34.40
2023-03-16T17:57:54.655Z,34.74
2023-03-16T18:00:27.206Z,34.54
2023-03-16T18:02:58.627Z,34.68
2023-03-16T18:05:29.128Z,34.99
2023-03-16T18:08:01.014Z,35.23
2023-03-16T18:10:31.577Z,35.14
2023-03-16T18:13:03.324Z,35.19
2023-03-16T18:15:33.733Z,35.47
2023-03-16T18:18:05.133Z,35.38
2023-03-16T18:20:36.895Z,35.84
2023-03-16T18:23:16.994Z,36.29
2023-03-16T18:25:45.773Z,35.65
2023-03-16T18:28:14.870Z,35.41
2023-03-16T18:30:44.525Z,35.66
2023-03-16T18:33:22.208Z,35.40
2023-03-16T18:35:51.076Z,35.84
2023-03-16T18:38:24.547Z,35.58
2023-03-16T18:40:52.206Z,36.07
2023-03-16T18:43:19.868Z,36.12
2023-03-16T18:45:48.825Z,36.76
2023-03-16T18:48:30.645Z,36.54
2023-03-16T18:50:59.028Z,36.78
2023-03-16T18:53:28.133Z,36.71
2023-03-16T18:55:57.539Z,36.75
2023-03-16T18:58:25.518Z,36.71
2023-03-16T19:00:56.422Z,36.96
2023-03-16T19:03:27.880Z,37.39
2023-03-16T19:05:57.563Z,37.78
2023-03-16T19:08:25.641Z,36.88
2023-03-16T19:10:56.936Z,37.58
2023-03-16T19:13:26.359Z,38.06
2023-03-16T19:15:55.950Z,38.37
2023-03-16T19:18:26.632Z,37.52
2023-03-16T19:20:56.503Z,38.09
2023-03-16T19:23:27.686Z,38.26
2023-03-16T19:25:55.962Z,38.59
2023-03-16T19:28:28.375Z,38.10
2023-03-16T19:30:56.934Z,38.04
2023-03-16T19:33:28.242Z,38.40
2023-03-16T19:35:57.155Z,38.69
2023-03-16T19:38:26.256Z,38.90
2023-03-16T19:40:57.063Z,38.28
2023-03-16T19:43:26.316Z,38.38
2023-03-16T19:45:54.931Z,39.10
2023-03-16T19:48:34.374Z,38.60
2023-03-16T19:51:02.135Z,39.17
2023-03-16T19:53:29.805Z,38.75
2023-03-16T19:55:57.889Z,38.73
2023-03-16T19:58:32.055Z,39.22
2023-03-16T20:01:01.571Z,39.50
2023-03-16T20:03:29.784Z,39.34
2023-03-16T20:05:58.805Z,38.99
2023-03-16T20:08:29.122Z,38.89
2023-03-16T20:11:02.078Z,39.36
2023-03-16T20:13:31.779Z,39.15
2023-03-16T20:15:59.439Z,38.88
2023-03-16T20:18:28.694Z,39.44
2023-03-16T20:20:58.269Z,39.43
2023-03-16T20:23:27.991Z,39.17
2023-03-16T20:25:56.360Z,38.60
2023-03-16T20:28:27.288Z,39.52
2023-03-16T20:30:55.103Z,39.34
2023-03-16T20:33:25.146Z,39.39
2023-03-16T20:35:54.914Z,39.69
2023-03-16T20:38:24.343Z,39.56
2023-03-16T20:41:06.309Z,39.16
2023-03-16T20:43:34.138Z,39.60
2023-03-16T20:46:04.311Z,39.68
2023-03-16T20:48:32.601Z,39.71
2023-03-16T20:51:01.466Z,39.82
2023-03-16T20:53:31.067Z,39.29
2023-03-16T20:56:01.619Z,39.67
2023-03-16T20:58:32.877Z,39.28
2023-03-16T21:01:01.989Z,39.32
2023-03-16T21:03:33.845Z,39.18
2023-03-16T21:06:01.486Z,39.57
2023-03-16T21:08:30.802Z,39.13
2023-03-16T21:11:00.331Z,39.38
2023-03-16T21:13:33.242Z,39.34
2023-03-16T21:16:03.876Z,39.24
2023-03-16T21:18:33.031Z,38.95
2023-03-16T21:21:00.846Z,39.04
2023-03-16T21:23:29.892Z,38.89
2023-03-16T21:26:00.530Z,39.27
2023-03-16T21:28:30.431Z,39.08
2023-03-16T21:30:59.177Z,38.78
2023-03-16T21:33:31.314Z,38.82
2023-03-16T21:35:59.873Z,39.22
2023-03-16T21:38:31.186Z,38.55
2023-03-16T21:40:59.279Z,38.78
2023-03-16T21:43:27.863Z,38.33
2023-03-16T21:45:57.169Z,38.45
2023-03-16T21:48:26.871Z,38.33
2023-03-16T21:50:54.905Z,38.84
2023-03-16T21:53:24.731Z,38.71
2023-03-16T21:55:55.116Z,38.85
2023-03-16T21:58:23.546Z,38.23
2023-03-16T22:00:53.933Z,38.47
2023-03-16T22:03:25.968Z,38.24
2023-03-16T22:05:55.001Z,38.13
2023-03-16T22:08:24.777Z,37.84
2023-03-16T22:10:54.826Z,38.59
2023-03-16T22:13:23.867Z,37.91
2023-03-16T22:15:52.821Z,38.56
2023-03-16T22:18:29.261Z,38.07
2023-03-16T22:20:58.887Z,38.38
2023-03-16T22:23:36.801Z,38.50
2023-03-16T22:26:09.545Z,38.31
2023-03-16T22:28:38.207Z,38.39
2023-03-16T22:31:06.570Z,37.67
2023-03-16T22:33:39.034Z,37.70
2023-03-16T22:36:11.732Z,37.81
2023-03-16T22:38:40.936Z,37.81
2023-03-16T22:41:14.782Z,38.04
2023-03-16T22:43:44.834Z,37.98
2023-03-16T22:46:19.280Z,38.22
2023-03-16T22:48:50.051Z,37.46
2023-03-16T22:51:24.973Z,38.05
2023-03-16T22:53:56.347Z,37.39
2023-03-16T22:56:26.252Z,37.88
2023-03-16T22:58:58.652Z,38.08
2023-03-16T23:01:31.183Z,38.01
2023-03-16T23:03:59.419Z,37.92
2023-03-16T23:06:29.963Z,37.81
2023-03-16T23:08:58.131Z,38.25
2023-03-16T23:11:32.813Z,38.12
2023-03-16T23:14:00.701Z,37.89
2023-03-16T23:16:31.186Z,38.10
2023-03-16T23:18:59.626Z,38.18
2023-03-16T23:21:29.387Z,38.29
2023-03-16T23:24:03.989Z,38.42
2023-03-16T23:26:34.287Z,38.21
2023-03-16T23:29:02.005Z,38.41
2023-03-16T23:31:30.936Z,37.96
2023-03-16T23:33:59.704Z,38.29
2023-03-16T23:36:27.511Z,37.85
2023-03-16T23:38:55.220Z,37.92
2023-03-16T23:41:24.830Z,38.27
2023-03-16T23:43:54.052Z,37.88
2023-03-16T23:46:25.714Z,38.01
2023-03-16T23:48:55.602Z,37.99
2023-03-16T23:51:27.619Z,38.48
2023-03-16T23:53:55.689Z,38.55
2023-03-16T23:56:23.502Z,38.69
2023-03-16T23:58:53.738Z,38.72
